Flight Track Log - Related Links

Times and Time Zones

All times are in EDT time to prevent confusion due to time zone crossing. See the JBU1503 flight status page for this flight to view local times or setup timezone preferences in your user account.

Time Position Orientation Groundspeed Altitude Reporting Facility
EDT Latitude Longitude Course Direction KTS MPH feet Rate Location/Type
Sat 12:14:08 AM 40.6167 -73.8000 128° Southeast 151 174 1,500  Level New York TRACON
Sat 12:16:26 AM 40.4772 -73.7858 176° South 254 292 7,100 2,485 Climbing New York Center
Sat 12:17:00 AM 40.3461 -73.2775 131° Southeast  Level FlightAware Approximate
Sat 12:17:26 AM 40.4528 -73.6894 108° East 274 315 9,700  Level New York Center
Sat 12:18:00 AM 40.2646 -73.1460 128° Southeast  Level FlightAware Approximate
Sat 12:18:26 AM 40.4183 -73.5625 110° East 320 368 11,400  Level New York Center
Sat 12:19:00 AM 40.1848 -73.0128 128° Southeast  Level FlightAware Approximate
Sat 12:19:26 AM 40.3836 -73.4414 111° Southeast 373 429 13,400  Level New York Center
Sat 12:20:26 AM 40.3031 -73.3211 131° Southeast 389 448 15,200 2,250 Climbing New York Center
Sat 12:21:26 AM 40.2319 -73.2314 136° Southeast 397 457 17,900 2,050 Climbing New York Center
Sat 12:22:26 AM 40.1486 -73.1308 137° Southeast 402 463 19,300 1,550 Climbing New York Center
Sat 12:23:26 AM 40.0631 -73.0247 136° Southeast 415 478 21,000 1,500 Climbing New York Center
Sat 12:24:26 AM 39.9756 -72.9164 136° Southeast 421 484 22,300 1,350 Climbing New York Center
Sat 12:25:26 AM 39.8858 -72.8081 137° Southeast 427 491 23,700 1,250 Climbing New York Center
Sat 12:26:26 AM 39.7958 -72.6972 137° Southeast 443 510 24,800 1,300 Climbing New York Center
Sat 12:27:26 AM 39.7039 -72.5842 137° Southeast 449 517 26,300 1,200 Climbing New York Center
Sat 12:28:26 AM 39.6097 -72.4711 137° Southeast 454 522 27,200 900 Climbing New York Center
Sat 12:29:26 AM 39.5136 -72.3531 137° Southeast 466 536 28,100 850 Climbing New York Center
Sat 12:30:26 AM 39.4150 -72.2353 137° Southeast 466 536 28,900 850 Climbing New York Center
Sat 12:31:26 AM 39.3183 -72.1206 137° Southeast 472 543 29,800 1,150 Climbing New York Center
Sat 12:32:26 AM 39.2175 -72.0033 138° Southeast 477 549 31,200 1,250 Climbing New York Center
Sat 12:33:26 AM 39.1231 -71.8811 135° Southeast 477 549 32,300 900 Climbing New York Center
Sat 12:34:26 AM 39.0239 -71.7675 138° Southeast 483 556 33,000 350 Climbing New York Center
Sat 12:35:26 AM 38.9247 -71.6511 138° Southeast 483 556 33,000  Level New York Center
Sat 12:36:26 AM 38.8278 -71.5353 137° Southeast 488 562 33,000  Level New York Center
Sat 12:37:26 AM 38.7283 -71.4169 137° Southeast 483 556 33,000  Level New York Center
Sat 12:38:26 AM 38.6267 -71.3044 139° Southeast 483 556 33,000  Level New York Center
Sat 12:39:26 AM 38.5314 -71.1869 136° Southeast 483 556 33,000  Level New York Center
Sat 12:40:26 AM 38.4317 -71.0722 138° Southeast 483 556 33,000  Level New York Center
Sat 12:41:26 AM 38.3319 -70.9528 137° Southeast 488 562 33,000  Level New York Center
Sat 12:42:26 AM 38.2297 -70.8467 141° Southeast 488 562 33,000  Level New York Center
Sat 12:43:26 AM 38.1361 -70.7303 136° Southeast 483 556 33,000  Level New York Center
Sat 12:44:26 AM 38.0275 -70.6353 145° Southeast 483 556 33,000  Level New York Center
Sat 12:45:26 AM 37.9189 -70.5458 147° Southeast 478 550 33,000  Level New York Center
Sat 12:46:26 AM 37.8000 -70.4806 157° South 465 535 33,000  Level New York Center
Sat 12:46:57 AM 38.0000 -70.5833 153° Southeast 460 529 33,000  Level New York Oceanic (ODAPS)
Sat 01:02:46 AM 36.1667 -69.4500 168° South 472 543 33,000  Level New York Oceanic (ODAPS)
Sat 01:03:00 AM 35.7908 -69.3488 168° South 460 529 33,000  Level FlightAware Transoceanic
Sat 01:04:00 AM 35.6655 -69.3153 168° South 460 529 33,000  Level FlightAware Transoceanic
Sat 01:05:00 AM 35.5402 -69.2819 168° South 460 529 33,000  Level FlightAware Transoceanic
Sat 01:06:00 AM 35.4149 -69.2486 168° South 460 529 33,000  Level FlightAware Transoceanic
Sat 01:07:00 AM 35.2895 -69.2154 168° South 460 529 33,000  Level FlightAware Transoceanic
Sat 01:08:00 AM 35.1642 -69.1823 168° South 460 529 33,000  Level FlightAware Transoceanic
Sat 01:09:00 AM 35.0083 -69.1413 168° South 472 543 33,000  Level FlightAware Transoceanic
Sat 01:10:00 AM 34.8796 -69.1075 168° South 472 543 33,000  Level FlightAware Transoceanic
Sat 01:11:00 AM 34.7508 -69.0739 168° South 472 543 33,000  Level FlightAware Transoceanic
Sat 01:12:00 AM 34.6221 -69.0403 168° South 472 543 33,000  Level FlightAware Transoceanic
Sat 01:13:00 AM 34.4933 -69.0069 168° South 472 543 33,000  Level FlightAware Transoceanic
Sat 01:14:00 AM 34.3645 -68.9735 168° South 472 543 33,000  Level FlightAware Transoceanic
Sat 01:15:00 AM 34.2357 -68.9403 168° South 472 543 33,000  Level FlightAware Transoceanic
Sat 01:16:00 AM 34.1069 -68.9071 168° South 472 543 33,000  Level FlightAware Transoceanic
Sat 01:17:00 AM 33.9781 -68.8741 168° South 472 543 33,000  Level FlightAware Transoceanic
Sat 01:18:00 AM 33.8492 -68.8412 168° South 472 543 33,000  Level FlightAware Transoceanic
Sat 01:19:00 AM 33.7204 -68.8083 168° South 472 543 33,000  Level FlightAware Transoceanic
Sat 01:20:00 AM 33.5916 -68.7756 168° South 472 543 33,000  Level FlightAware Transoceanic
Sat 01:21:00 AM 33.4627 -68.7429 168° South 472 543 33,000  Level FlightAware Transoceanic
Sat 01:22:00 AM 33.3339 -68.7104 168° South 472 543 33,000  Level FlightAware Transoceanic
Sat 01:23:00 AM 33.2050 -68.6779 168° South 472 543 33,000  Level FlightAware Transoceanic
Sat 01:24:00 AM 33.0761 -68.6456 168° South 472 543 33,000  Level FlightAware Transoceanic
Sat 01:25:00 AM 32.9472 -68.6133 168° South 472 543 33,000  Level FlightAware Transoceanic
Sat 01:26:00 AM 32.8183 -68.5812 168° South 472 543 33,000  Level FlightAware Transoceanic
Sat 01:27:00 AM 32.6894 -68.5491 168° South 472 543 33,000  Level FlightAware Transoceanic
Sat 01:28:00 AM 32.5605 -68.5171 168° South 472 543 33,000  Level FlightAware Transoceanic
Sat 01:29:00 AM 32.4316 -68.4852 168° South 472 543 33,000  Level FlightAware Transoceanic
Sat 01:30:00 AM 32.3027 -68.4534 168° South 472 543 33,000  Level FlightAware Transoceanic
Sat 01:31:00 AM 32.1738 -68.4217 168° South 472 543 33,000  Level FlightAware Transoceanic
Sat 01:32:00 AM 32.0448 -68.3901 168° South 472 543 33,000  Level FlightAware Transoceanic
Sat 01:33:00 AM 31.9159 -68.3586 168° South 472 543 33,000  Level FlightAware Transoceanic
Sat 01:34:00 AM 31.7869 -68.3271 168° South 472 543 33,000  Level FlightAware Transoceanic
Sat 01:35:00 AM 31.6579 -68.2958 168° South 472 543 33,000  Level FlightAware Transoceanic
Sat 01:36:00 AM 31.5290 -68.2645 168° South 472 543 33,000  Level FlightAware Transoceanic
Sat 01:37:00 AM 31.4000 -68.2333 168° South 472 543 33,000  Level FlightAware Transoceanic
Sat 01:38:00 AM 31.2697 -68.2020 168° South 472 543 33,000  Level FlightAware Transoceanic
Sat 01:39:00 AM 31.1394 -68.1708 168° South 472 543 33,000  Level FlightAware Transoceanic
Sat 01:40:00 AM 31.0091 -68.1396 168° South 472 543 33,000  Level FlightAware Transoceanic
Sat 01:41:00 AM 30.8787 -68.1085 168° South 472 543 33,000  Level FlightAware Transoceanic
Sat 01:42:00 AM 30.7484 -68.0775 168° South 472 543 33,000  Level FlightAware Transoceanic
Sat 01:43:00 AM 30.6180 -68.0466 168° South 472 543 33,000  Level FlightAware Transoceanic
Sat 01:44:00 AM 30.4877 -68.0158 168° South 472 543 33,000  Level FlightAware Transoceanic
Sat 01:45:00 AM 30.3573 -67.9850 169° South 472 543 33,000  Level FlightAware Transoceanic
Sat 01:46:00 AM 30.2270 -67.9544 169° South 472 543 33,000  Level FlightAware Transoceanic
Sat 01:47:00 AM 30.0966 -67.9238 169° South 472 543 33,000  Level FlightAware Transoceanic
Sat 01:48:00 AM 29.9662 -67.8933 169° South 472 543 33,000  Level FlightAware Transoceanic
Sat 01:49:00 AM 29.8358 -67.8629 169° South 472 543 33,000  Level FlightAware Transoceanic
Sat 01:50:00 AM 29.7055 -67.8325 169° South 472 543 33,000  Level FlightAware Transoceanic
Sat 01:51:00 AM 29.5751 -67.8023 169° South 472 543 33,000  Level FlightAware Transoceanic
Sat 01:52:00 AM 29.4446 -67.7721 169° South 472 543 33,000  Level FlightAware Transoceanic
Sat 01:53:00 AM 29.3142 -67.7420 169° South 472 543 33,000  Level FlightAware Transoceanic
Sat 01:54:00 AM 29.1838 -67.7119 169° South 472 543 33,000  Level FlightAware Transoceanic
Sat 01:55:00 AM 29.0534 -67.6820 169° South 472 543 33,000  Level FlightAware Transoceanic
Sat 01:56:00 AM 28.9230 -67.6521 169° South 472 543 33,000  Level FlightAware Transoceanic
Sat 01:57:00 AM 28.7925 -67.6223 169° South 472 543 33,000  Level FlightAware Transoceanic
Sat 01:58:00 AM 28.6621 -67.5926 169° South 472 543 33,000  Level FlightAware Transoceanic
Sat 01:59:00 AM 28.5316 -67.5629 169° South 472 543 33,000  Level FlightAware Transoceanic
Sat 02:00:00 AM 28.4011 -67.5333 169° South 472 543 33,000  Level FlightAware Transoceanic
Sat 02:01:00 AM 28.2707 -67.5038 169° South 472 543 33,000  Level FlightAware Transoceanic
Sat 02:02:00 AM 28.1402 -67.4744 169° South 472 543 33,000  Level FlightAware Transoceanic
Sat 02:03:00 AM 28.0097 -67.4450 169° South 472 543 33,000  Level FlightAware Transoceanic
Sat 02:04:00 AM 27.8792 -67.4157 169° South 472 543 33,000  Level FlightAware Transoceanic
Sat 02:05:00 AM 27.7488 -67.3865 169° South 472 543 33,000  Level FlightAware Transoceanic
Sat 02:06:00 AM 27.6183 -67.3573 169° South 472 543 33,000  Level FlightAware Transoceanic
Sat 02:07:00 AM 27.4878 -67.3282 169° South 472 543 33,000  Level FlightAware Transoceanic
Sat 02:08:00 AM 27.3573 -67.2992 169° South 472 543 33,000  Level FlightAware Transoceanic
Sat 02:09:00 AM 27.2267 -67.2703 169° South 472 543 33,000  Level FlightAware Transoceanic
Sat 02:10:00 AM 27.0962 -67.2414 169° South 472 543 33,000  Level FlightAware Transoceanic
Sat 02:11:00 AM 26.9657 -67.2126 169° South 472 543 33,000  Level FlightAware Transoceanic
Sat 02:12:00 AM 26.8351 -67.1838 169° South 472 543 33,000  Level FlightAware Transoceanic
Sat 02:12:02 AM 27.0833 -67.2500 169° South 474 545 33,000  Level New York Oceanic (ODAPS)
Sat 02:43:13 AM 22.9167 -66.3500 169° South 465 535 33,000  Level New York Oceanic (ODAPS)
Sat 02:46:36 AM 22.2667 -66.2333 169° South 520 598 33,000  Level San Juan Center
Sat 02:47:00 AM 22.2857 -66.2188 169° South 474 545 33,000  Level FlightAware Transoceanic
Sat 02:47:37 AM 22.1500 -66.2000 165° South 480 552 33,000  Level San Juan Center
Sat 02:48:00 AM 22.1595 -66.1927 169° South 474 545 33,000  Level FlightAware Transoceanic
Sat 02:49:00 AM 21.8917 -66.1374 169° South 465 535 33,000  Level FlightAware Transoceanic
Sat 02:49:07 AM 21.9333 -66.1500 168° South 550 633 33,000  Level San Juan Center
Sat 02:50:00 AM 21.7500 -66.1082 169° South 465 535 33,000  Level FlightAware Transoceanic
Sat 02:50:08 AM 21.8000 -66.1500 180° South 460 529 33,000  Level San Juan Center
Sat 02:51:00 AM 21.6083 -66.0791 169° South 465 535 33,000  Level FlightAware Transoceanic
Sat 02:51:08 AM 21.6833 -66.1500 180° South 510 587 33,000  Level San Juan Center
Sat 02:53:19 AM 21.3667 -66.1500 180° South 400 460 33,000  Level San Juan Center
Sat 02:54:19 AM 21.2333 -66.1500 180° South 440 506 33,000  Level San Juan Center
Sat 02:56:20 AM 20.9667 -66.1667 183° South 460 529 33,000  Level San Juan Center
Sat 02:57:21 AM 20.8500 -66.1667 180° South 480 552 33,000  Level San Juan Center
Sat 02:58:21 AM 20.7000 -66.1667 180° South 480 552 33,000 -50 Level San Juan Center
Sat 02:59:21 AM 20.5667 -66.1667 180° South 490 564 32,900 -545 Descending San Juan Center
Sat 03:00:22 AM 20.4333 -66.1667 180° South 480 552 31,900 -1,041 Descending San Juan Center
Sat 03:01:22 AM 20.2833 -66.1667 180° South 490 564 30,800 -1,041 Descending San Juan Center
Sat 03:02:23 AM 20.1333 -66.1667 180° South 480 552 29,800 -1,550 Descending San Juan Center
Sat 03:03:22 AM 20.0000 -66.1667 180° South 470 541 27,700 -2,100 Descending San Juan Center
Sat 03:04:23 AM 19.8833 -66.1833 188° South 470 541 25,600 -2,132 Descending San Juan Center
Sat 03:05:23 AM 19.7500 -66.1833 180° South 450 518 23,400 -1,983 Descending San Juan Center
Sat 03:06:24 AM 19.6333 -66.1833 180° South 430 495 21,600 -1,934 Descending San Juan Center
Sat 03:07:24 AM 19.5167 -66.1833 180° South 410 472 19,500 -1,900 Descending San Juan Center
Sat 03:08:24 AM 19.4000 -66.1833 180° South 400 460 17,800 -1,835 Descending San Juan Center
Sat 03:09:25 AM 19.3000 -66.1833 180° South 380 437 15,800 -1,835 Descending San Juan Center
Sat 03:10:25 AM 19.2000 -66.1833 180° South 370 426 14,100 -1,850 Descending San Juan Center
Sat 03:11:25 AM 19.0833 -66.1833 180° South 350 403 12,100 -1,736 Descending San Juan Center
Sat 03:12:26 AM 19.0000 -66.1833 180° South 330 380 10,600 -1,537 Descending San Juan Center
Sat 03:13:26 AM 18.9167 -66.1833 180° South 300 345 9,000 -1,587 Descending San Juan Center
Sat 03:14:27 AM 18.8333 -66.1833 180° South 290 334 7,400 -1,289 Descending San Juan Center
Sat 03:15:27 AM 18.7500 -66.1833 180° South 270 311 6,400 -950 Descending San Juan Center
Sat 03:16:27 AM 18.6833 -66.1833 180° South 250 288 5,500 -942 Descending San Juan Center
Sat 03:17:28 AM 18.6167 -66.1833 180° South 230 265 4,500 -992 Descending San Juan Center
Sat 03:18:28 AM 18.5500 -66.1833 180° South 220 253 3,500 -744 Descending San Juan Center
Sat 03:19:29 AM 18.5000 -66.1833 180° South 210 242 3,000 -248 Descending San Juan Center
Sat 03:20:29 AM 18.4500 -66.1667 162° South 200 230 3,000 -450 Level San Juan Center
Sat 03:21:29 AM 18.4333 -66.1333 118° Southeast 160 184 2,100 -744 Descending San Juan Center
Sat 03:22:30 AM 18.4333 -66.0833 90° East 160 184 1,500 -645 Descending San Juan Center
Sat 03:23:30 AM 18.4333 -66.0500 90° East 140 161 800 -700 Descending San Juan Center

Login

Don't have an account? Register now (free) for customized features, flight alerts, and more!